You are not logged in, Click here to log in
ICAO: KSAN Country: 美國加利福尼亞州聖地牙哥
Latitude: 32.7336 Longitude: -117.19
Total Arrivals: 10 Total Departures: 10
Latest Arrival: WN1473 (KSFO-KSAN)Arthur. Kung Latest Departure: WN2734 (KSAN-KAUS)Arthur. Kung
Scenery:
METAR : KSAN 210651Z 31003KT 8SM FEW010 20/18 A2990 RMK AO2 SLP123 T02000183

聖地牙哥國際機場SAN